createdAt,value
2022-11-24T00:01:07.435Z,11.18
2022-11-24T00:03:34.290Z,10.88
2022-11-24T00:06:07.272Z,9.98
2022-11-24T00:08:38.129Z,10.13
2022-11-24T00:11:13.821Z,10.25
2022-11-24T00:13:40.428Z,10.88
2022-11-24T00:16:16.097Z,10.90
2022-11-24T00:18:44.358Z,10.85
2022-11-24T00:21:11.410Z,10.30
2022-11-24T00:23:38.266Z,10.60
2022-11-24T00:26:04.624Z,10.38
2022-11-24T00:28:32.592Z,10.68
2022-11-24T00:30:58.988Z,10.45
2022-11-24T00:33:25.405Z,10.30
2022-11-24T00:35:59.503Z,10.30
2022-11-24T00:38:26.902Z,10.40
2022-11-24T00:40:53.284Z,9.98
2022-11-24T00:43:20.008Z,10.40
2022-11-24T00:45:46.502Z,10.35
2022-11-24T00:48:13.084Z,9.80
2022-11-24T00:50:39.525Z,10.30
2022-11-24T00:53:06.288Z,10.07
2022-11-24T00:55:32.648Z,9.88
2022-11-24T00:57:59.120Z,9.98
2022-11-24T01:00:26.403Z,9.23
2022-11-24T01:02:52.947Z,10.77
2022-11-24T01:05:19.377Z,10.25
2022-11-24T01:07:45.783Z,10.07
2022-11-24T01:10:12.195Z,10.55
2022-11-24T01:12:38.544Z,10.65
2022-11-24T01:15:05.393Z,9.70
2022-11-24T01:17:31.818Z,9.48
2022-11-24T01:19:58.175Z,10.02
2022-11-24T01:22:26.563Z,9.88
2022-11-24T01:24:52.919Z,9.80
2022-11-24T01:27:19.281Z,10.02
2022-11-24T01:29:45.638Z,10.40
2022-11-24T01:32:12.043Z,9.75
2022-11-24T01:34:38.435Z,9.88
2022-11-24T01:37:04.788Z,10.35
2022-11-24T01:39:31.138Z,9.43
2022-11-24T01:42:01.244Z,8.55
2022-11-24T01:44:29.760Z,9.00
2022-11-24T01:47:05.233Z,9.00
2022-11-24T01:49:43.127Z,9.60
2022-11-24T01:52:20.059Z,9.25
2022-11-24T01:54:51.541Z,9.48
2022-11-24T01:57:22.031Z,10.05
2022-11-24T01:59:51.499Z,9.38
2022-11-24T02:02:19.044Z,9.02
2022-11-24T02:04:46.329Z,9.68
2022-11-24T02:07:13.336Z,9.30
2022-11-24T02:09:51.389Z,9.57
2022-11-24T02:12:17.783Z,8.85
2022-11-24T02:14:45.525Z,9.13
2022-11-24T02:17:12.060Z,8.95
2022-11-24T02:19:41.240Z,9.23
2022-11-24T02:22:42.285Z,9.35
2022-11-24T02:25:29.442Z,9.82
2022-11-24T02:27:56.964Z,10.13
2022-11-24T02:30:23.679Z,9.90
2022-11-24T02:32:50.129Z,9.32
2022-11-24T02:35:17.129Z,9.43
2022-11-24T02:37:43.503Z,10.00
2022-11-24T02:40:10.415Z,9.48
2022-11-24T02:42:41.262Z,9.57
2022-11-24T02:45:09.408Z,9.27
2022-11-24T02:47:35.799Z,9.73
2022-11-24T02:50:02.309Z,8.77
2022-11-24T02:52:28.713Z,10.18
2022-11-24T02:54:55.081Z,9.50
2022-11-24T02:57:22.583Z,9.55
2022-11-24T02:59:49.018Z,9.57
2022-11-24T03:02:15.438Z,9.20
2022-11-24T03:04:41.816Z,9.40
2022-11-24T03:07:08.292Z,9.35
2022-11-24T03:09:34.716Z,10.25
2022-11-24T03:12:01.123Z,10.13
2022-11-24T03:14:27.832Z,9.95
2022-11-24T03:16:54.219Z,10.23
2022-11-24T03:19:20.596Z,10.02
2022-11-24T03:21:46.973Z,10.10
2022-11-24T03:24:13.364Z,10.18
2022-11-24T03:26:39.778Z,11.13
2022-11-24T03:29:06.246Z,10.85
2022-11-24T03:31:32.697Z,9.90
2022-11-24T03:33:59.238Z,10.63
2022-11-24T03:36:26.020Z,10.85
2022-11-24T03:38:52.373Z,10.80
2022-11-24T03:41:18.718Z,11.32
2022-11-24T03:43:45.108Z,10.45
2022-11-24T03:46:12.659Z,10.77
2022-11-24T03:48:39.199Z,10.95
2022-11-24T03:51:05.786Z,10.27
2022-11-24T03:53:33.676Z,10.85
2022-11-24T03:56:00.894Z,11.48
2022-11-24T03:58:27.716Z,10.77
2022-11-24T04:00:54.914Z,10.55
2022-11-24T04:03:22.038Z,10.98
2022-11-24T04:05:48.470Z,11.40
2022-11-24T04:08:15.486Z,11.20
2022-11-24T04:10:42.398Z,12.05
2022-11-24T04:13:15.261Z,11.82
2022-11-24T04:15:42.799Z,11.95
2022-11-24T04:18:11.078Z,11.50
2022-11-24T04:20:38.617Z,11.15
2022-11-24T04:23:05.076Z,11.63
2022-11-24T04:25:31.953Z,11.48
2022-11-24T04:27:58.399Z,12.30
2022-11-24T04:30:26.385Z,11.45
2022-11-24T04:32:52.934Z,11.07
2022-11-24T04:35:20.021Z,11.65
2022-11-24T04:37:46.524Z,11.48
2022-11-24T04:40:14.178Z,11.90
2022-11-24T04:42:40.582Z,11.35
2022-11-24T04:45:07.947Z,10.80
2022-11-24T04:47:34.635Z,10.63
2022-11-24T04:50:01.024Z,11.13
2022-11-24T04:52:29.756Z,12.57
2022-11-24T04:54:56.143Z,11.27
2022-11-24T04:57:25.624Z,11.65
2022-11-24T04:59:52.809Z,10.93
2022-11-24T05:02:19.923Z,12.05
2022-11-24T05:04:46.684Z,11.02
2022-11-24T05:07:19.090Z,11.50
2022-11-24T05:10:05.292Z,12.13
2022-11-24T05:12:31.941Z,11.80
2022-11-24T05:14:59.513Z,11.55
2022-11-24T05:17:30.888Z,12.25
2022-11-24T05:19:58.699Z,11.20
2022-11-24T05:22:25.474Z,11.70
2022-11-24T05:24:51.865Z,12.50
2022-11-24T05:27:18.316Z,11.88
2022-11-24T05:29:44.698Z,12.65
2022-11-24T05:32:11.131Z,12.60
2022-11-24T05:34:37.627Z,13.30
2022-11-24T05:37:04.180Z,13.00
2022-11-24T05:39:34.688Z,12.40
2022-11-24T05:44:52.488Z,12.00
2022-11-24T05:47:19.382Z,13.82
2022-11-24T05:49:45.835Z,12.63
2022-11-24T05:52:12.309Z,12.38
2022-11-24T05:54:39.762Z,12.45
2022-11-24T05:57:06.190Z,13.10
2022-11-24T05:59:32.565Z,13.63
2022-11-24T06:01:59.051Z,12.70
2022-11-24T06:04:25.880Z,13.20
2022-11-24T06:06:52.289Z,13.35
2022-11-24T06:09:18.746Z,12.73
2022-11-24T06:11:50.383Z,12.13
2022-11-24T06:14:16.729Z,12.80
2022-11-24T06:16:43.150Z,12.82
2022-11-24T06:19:10.531Z,12.10
2022-11-24T06:21:37.204Z,12.68
2022-11-24T06:24:04.164Z,12.43
2022-11-24T06:26:30.610Z,12.30
2022-11-24T06:28:57.066Z,12.80
2022-11-24T06:31:23.530Z,12.98
2022-11-24T06:33:49.974Z,12.02
2022-11-24T06:36:16.481Z,12.95
2022-11-24T06:38:43.082Z,12.70
2022-11-24T06:41:15.336Z,12.73
2022-11-24T06:43:41.925Z,13.15
2022-11-24T06:46:08.383Z,12.80
2022-11-24T06:48:34.816Z,12.35
2022-11-24T06:51:06.024Z,12.93
2022-11-24T06:53:37.680Z,12.93
2022-11-24T06:56:16.144Z,12.30
2022-11-24T06:58:44.971Z,12.75
2022-11-24T07:01:20.164Z,12.70
2022-11-24T07:03:48.225Z,12.27
2022-11-24T07:06:16.110Z,12.65
2022-11-24T07:08:42.599Z,13.18
2022-11-24T07:11:11.967Z,12.27
2022-11-24T07:13:38.763Z,12.27
2022-11-24T07:16:19.966Z,12.88
2022-11-24T07:18:48.235Z,12.90
2022-11-24T07:21:15.386Z,12.48
2022-11-24T07:23:41.783Z,12.88
2022-11-24T07:26:09.052Z,13.30
2022-11-24T07:28:39.404Z,12.75
2022-11-24T07:31:11.182Z,12.25
2022-11-24T07:33:38.099Z,12.98
2022-11-24T07:36:06.196Z,13.15
2022-11-24T07:38:33.022Z,12.57
2022-11-24T07:41:07.781Z,13.70
2022-11-24T07:43:36.056Z,12.85
2022-11-24T07:46:03.563Z,12.63
2022-11-24T07:48:30.034Z,13.00
2022-11-24T07:51:00.358Z,13.57
2022-11-24T07:53:27.297Z,12.18
2022-11-24T07:55:55.611Z,12.93
2022-11-24T07:58:22.652Z,12.43
2022-11-24T08:00:49.286Z,12.07
2022-11-24T08:03:16.242Z,13.38
2022-11-24T08:06:00.997Z,12.73
2022-11-24T08:08:33.272Z,13.43
2022-11-24T08:11:05.765Z,12.73
2022-11-24T08:13:32.131Z,11.52
2022-11-24T08:15:58.498Z,11.40
2022-11-24T08:18:24.925Z,11.15
2022-11-24T08:20:51.289Z,11.18
2022-11-24T08:23:17.668Z,10.93
2022-11-24T08:25:44.023Z,10.25
2022-11-24T08:28:10.400Z,12.15
2022-11-24T08:30:36.751Z,12.13
2022-11-24T08:33:03.168Z,11.43
2022-11-24T08:35:29.590Z,11.20
2022-11-24T08:37:59.198Z,11.32
2022-11-24T08:40:29.818Z,12.55
2022-11-24T08:43:00.741Z,11.68
2022-11-24T08:45:30.515Z,12.35
2022-11-24T08:47:58.106Z,11.88
2022-11-24T08:50:25.435Z,13.73
2022-11-24T08:52:53.412Z,12.30
2022-11-24T08:55:20.486Z,12.93
2022-11-24T08:57:46.892Z,12.48
2022-11-24T09:00:13.911Z,11.43
2022-11-24T09:02:40.294Z,12.75
2022-11-24T09:05:22.490Z,11.70
2022-11-24T09:07:53.362Z,13.25
2022-11-24T09:10:19.867Z,12.82
2022-11-24T09:12:47.421Z,13.13
2022-11-24T09:15:16.311Z,12.90
2022-11-24T09:17:43.584Z,13.38
2022-11-24T09:20:10.078Z,13.15
2022-11-24T09:22:38.074Z,13.85
2022-11-24T09:25:05.946Z,12.55
2022-11-24T09:27:32.660Z,12.43
2022-11-24T09:29:59.031Z,12.75
2022-11-24T09:32:25.789Z,12.57
2022-11-24T09:34:52.225Z,11.45
2022-11-24T09:37:18.639Z,12.70
2022-11-24T09:39:45.006Z,11.65
2022-11-24T09:42:19.678Z,11.90
2022-11-24T09:45:02.604Z,11.88
2022-11-24T09:47:50.575Z,11.98
2022-11-24T09:50:24.511Z,12.60
2022-11-24T09:53:15.414Z,12.93
2022-11-24T09:55:47.005Z,12.55
2022-11-24T09:58:29.437Z,12.45
2022-11-24T10:00:57.003Z,12.80
2022-11-24T10:03:32.454Z,11.73
2022-11-24T10:06:02.989Z,12.63
2022-11-24T10:08:38.547Z,12.52
2022-11-24T10:11:21.103Z,12.80
2022-11-24T10:14:21.037Z,11.95
2022-11-24T10:16:59.516Z,12.40
2022-11-24T10:19:56.423Z,12.07
2022-11-24T10:22:45.137Z,12.60
2022-11-24T10:25:45.474Z,11.60
2022-11-24T10:28:16.057Z,11.70
2022-11-24T10:30:43.207Z,11.95
2022-11-24T10:33:19.579Z,13.05
2022-11-24T10:35:55.683Z,11.80
2022-11-24T10:38:35.228Z,12.60
2022-11-24T10:41:07.015Z,11.68
2022-11-24T10:43:33.487Z,11.73
2022-11-24T10:46:10.625Z,12.57
2022-11-24T10:48:52.131Z,12.90
2022-11-24T10:51:48.041Z,12.52
2022-11-24T10:54:20.869Z,12.80
2022-11-24T10:56:50.215Z,12.65
2022-11-24T10:59:36.875Z,12.55
2022-11-24T11:02:26.549Z,12.05
2022-11-24T11:04:53.009Z,12.52
2022-11-24T11:07:21.991Z,12.77
2022-11-24T11:09:49.410Z,13.50
2022-11-24T11:12:43.277Z,12.38
2022-11-24T11:15:23.589Z,12.13
2022-11-24T11:17:52.497Z,12.20
2022-11-24T11:20:28.678Z,12.20
2022-11-24T11:22:56.454Z,12.25
2022-11-24T11:25:34.096Z,12.77
2022-11-24T11:28:22.143Z,13.25
2022-11-24T11:31:20.946Z,12.65
2022-11-24T11:34:05.286Z,12.48
2022-11-24T11:36:33.681Z,11.48
2022-11-24T11:39:00.360Z,11.27
2022-11-24T11:41:43.261Z,11.00
2022-11-24T11:44:32.464Z,10.68
2022-11-24T11:47:02.660Z,11.38
2022-11-24T11:49:29.156Z,11.65
2022-11-24T11:52:21.747Z,11.52
2022-11-24T11:55:08.302Z,11.40
2022-11-24T11:57:37.689Z,11.40
2022-11-24T12:00:18.433Z,10.77
2022-11-24T12:03:19.426Z,11.02
2022-11-24T12:06:19.334Z,10.60
2022-11-24T12:09:19.785Z,11.68
2022-11-24T12:12:13.180Z,11.30
2022-11-24T12:15:11.199Z,11.10
2022-11-24T12:17:44.638Z,10.48
2022-11-24T12:20:27.003Z,11.18
2022-11-24T12:23:40.291Z,10.70
2022-11-24T12:26:34.612Z,10.93
2022-11-24T12:29:25.978Z,10.10
2022-11-24T12:32:20.852Z,11.15
2022-11-24T12:35:06.781Z,10.57
2022-11-24T12:37:55.212Z,9.75
2022-11-24T12:40:46.971Z,10.63
2022-11-24T12:43:32.387Z,10.02
2022-11-24T12:46:13.932Z,9.75
2022-11-24T12:49:01.649Z,9.50
2022-11-24T12:51:33.231Z,10.00
2022-11-24T12:54:03.007Z,9.90
2022-11-24T12:56:40.367Z,10.88
2022-11-24T12:59:27.960Z,10.27
2022-11-24T13:02:40.332Z,10.80
2022-11-24T13:05:37.820Z,10.02
2022-11-24T13:08:05.596Z,10.27
2022-11-24T13:10:55.414Z,10.23
2022-11-24T13:13:27.937Z,9.77
2022-11-24T13:16:20.590Z,10.35
2022-11-24T13:18:57.335Z,9.43
2022-11-24T13:21:42.903Z,9.55
2022-11-24T13:24:24.004Z,9.32
2022-11-24T13:27:15.304Z,9.35
2022-11-24T13:29:46.867Z,9.13
2022-11-24T13:32:14.520Z,9.23
2022-11-24T13:34:41.258Z,8.88
2022-11-24T13:37:31.917Z,8.45
2022-11-24T13:40:22.554Z,8.73
2022-11-24T13:42:58.007Z,8.00
2022-11-24T13:45:39.869Z,8.70
2022-11-24T13:48:18.936Z,8.45
2022-11-24T13:50:52.161Z,9.10
2022-11-24T13:53:37.115Z,8.85
2022-11-24T13:56:12.753Z,8.00
2022-11-24T13:58:53.693Z,9.25
2022-11-24T14:01:31.261Z,9.73
2022-11-24T14:04:29.286Z,9.52
2022-11-24T14:06:52.571Z,8.68
2022-11-24T14:09:21.521Z,9.63
2022-11-24T14:12:16.818Z,9.80
2022-11-24T14:14:45.429Z,9.40
2022-11-24T14:17:23.481Z,9.48
2022-11-24T14:19:55.030Z,9.45
2022-11-24T14:22:31.858Z,9.30
2022-11-24T14:25:02.559Z,9.35
2022-11-24T14:27:40.014Z,9.48
2022-11-24T14:30:09.466Z,8.90
2022-11-24T14:32:37.720Z,9.68
2022-11-24T14:35:24.422Z,9.20
2022-11-24T14:37:51.088Z,9.40
2022-11-24T14:40:41.275Z,8.90
2022-11-24T14:43:29.887Z,9.75
2022-11-24T14:46:03.445Z,9.23
2022-11-24T14:48:38.676Z,9.00
2022-11-24T14:51:11.032Z,8.52
2022-11-24T14:53:42.044Z,9.07
2022-11-24T14:56:20.147Z,9.63
2022-11-24T14:58:46.514Z,8.75
2022-11-24T15:01:21.032Z,9.55
2022-11-24T15:04:13.061Z,9.52
2022-11-24T15:06:47.487Z,9.13
2022-11-24T15:09:22.081Z,9.30
2022-11-24T15:11:48.717Z,9.95
2022-11-24T15:14:30.637Z,9.88
2022-11-24T15:16:58.958Z,9.27
2022-11-24T15:19:32.377Z,9.40
2022-11-24T15:21:59.093Z,9.15
2022-11-24T15:24:25.696Z,9.50
2022-11-24T15:27:00.051Z,9.60
2022-11-24T15:29:26.499Z,9.98
2022-11-24T15:31:53.272Z,9.63
2022-11-24T15:34:19.840Z,10.52
2022-11-24T15:36:46.183Z,10.05
2022-11-24T15:39:12.851Z,10.48
2022-11-24T15:41:40.684Z,10.48
2022-11-24T15:44:07.870Z,10.52
2022-11-24T15:46:38.746Z,10.65
2022-11-24T15:49:06.262Z,11.10
2022-11-24T15:51:33.550Z,10.57
2022-11-24T15:54:01.416Z,10.10
2022-11-24T15:56:32.856Z,9.95
2022-11-24T15:59:00.203Z,9.35
2022-11-24T16:01:31.498Z,9.85
2022-11-24T16:03:58.096Z,9.82
2022-11-24T16:06:25.499Z,10.15
2022-11-24T16:08:53.242Z,10.48
2022-11-24T16:11:19.793Z,9.50
2022-11-24T16:13:51.871Z,9.13
2022-11-24T16:16:19.281Z,9.80
2022-11-24T16:18:45.867Z,9.80
2022-11-24T16:21:12.356Z,9.93
2022-11-24T16:23:38.750Z,10.07
2022-11-24T16:26:05.795Z,9.98
2022-11-24T16:28:32.932Z,10.35
2022-11-24T16:30:59.357Z,10.02
2022-11-24T16:33:25.767Z,10.10
2022-11-24T16:35:52.167Z,9.88
2022-11-24T16:38:19.905Z,10.60
2022-11-24T16:40:59.164Z,9.25
2022-11-24T16:43:25.567Z,10.15
2022-11-24T16:46:17.673Z,9.50
2022-11-24T16:48:45.505Z,8.35
2022-11-24T16:51:12.725Z,9.90
2022-11-24T16:53:39.867Z,9.85
2022-11-24T16:56:06.832Z,9.48
2022-11-24T16:58:33.810Z,8.80
2022-11-24T17:01:05.059Z,8.52
2022-11-24T17:03:37.352Z,8.63
2022-11-24T17:06:05.915Z,9.50
2022-11-24T17:08:33.800Z,8.52
2022-11-24T17:11:07.686Z,8.43
2022-11-24T17:13:34.151Z,9.27
2022-11-24T17:16:08.463Z,9.07
2022-11-24T17:18:34.981Z,8.23
2022-11-24T17:21:09.531Z,9.00
2022-11-24T17:23:37.101Z,9.65
2022-11-24T17:26:06.496Z,9.93
2022-11-24T17:28:34.256Z,9.35
2022-11-24T17:31:06.781Z,8.85
2022-11-24T17:33:33.427Z,9.30
2022-11-24T17:36:04.631Z,10.18
2022-11-24T17:38:31.155Z,12.85
2022-11-24T17:40:58.443Z,11.65
2022-11-24T17:43:25.217Z,10.52
2022-11-24T17:45:56.197Z,9.40
2022-11-24T17:48:23.443Z,10.13
2022-11-24T17:50:59.465Z,10.40
2022-11-24T17:53:26.148Z,10.18
2022-11-24T17:55:52.594Z,10.50
2022-11-24T17:58:19.144Z,11.35
2022-11-24T18:00:45.565Z,10.20
2022-11-24T18:03:11.978Z,10.48
2022-11-24T18:05:39.314Z,10.82
2022-11-24T18:08:05.953Z,10.20
2022-11-24T18:10:32.773Z,10.15
2022-11-24T18:12:59.125Z,10.20
2022-11-24T18:15:25.600Z,10.80
2022-11-24T18:17:52.458Z,10.48
2022-11-24T18:20:18.832Z,10.93
2022-11-24T18:25:33.151Z,11.55
2022-11-24T18:27:59.516Z,11.25
2022-11-24T18:30:25.886Z,11.88
2022-11-24T18:32:52.250Z,10.77
2022-11-24T18:35:18.637Z,11.55
2022-11-24T18:37:44.998Z,10.43
2022-11-24T18:40:11.643Z,11.45
2022-11-24T18:42:38.055Z,13.25
2022-11-24T18:45:05.496Z,14.32
2022-11-24T18:47:31.881Z,12.93
2022-11-24T18:50:00.209Z,13.13
2022-11-24T18:52:26.623Z,15.18
2022-11-24T18:54:52.985Z,15.52
2022-11-24T18:57:19.346Z,13.98
2022-11-24T18:59:45.700Z,13.68
2022-11-24T19:02:12.357Z,11.68
2022-11-24T19:04:38.771Z,13.10
2022-11-24T19:07:05.167Z,13.38
2022-11-24T19:09:31.551Z,13.27
2022-11-24T19:11:57.900Z,12.20
2022-11-24T19:14:24.256Z,14.52
2022-11-24T19:16:50.739Z,13.15
2022-11-24T19:19:17.349Z,12.73
2022-11-24T19:21:44.191Z,12.85
2022-11-24T19:24:11.077Z,11.80
2022-11-24T19:26:40.682Z,11.18
2022-11-24T19:29:08.062Z,11.60
2022-11-24T19:31:35.352Z,11.85
2022-11-24T19:34:02.985Z,10.73
2022-11-24T19:36:32.302Z,10.65
2022-11-24T19:38:58.889Z,9.60
2022-11-24T19:41:27.846Z,9.75
2022-11-24T19:43:54.655Z,9.10
2022-11-24T19:46:22.936Z,9.73
2022-11-24T19:48:53.969Z,9.63
2022-11-24T19:51:22.836Z,9.57
2022-11-24T19:53:49.227Z,9.75
2022-11-24T19:56:24.757Z,12.80
2022-11-24T19:58:52.431Z,11.90
2022-11-24T20:01:39.757Z,12.35
2022-11-24T20:04:09.381Z,12.07
2022-11-24T20:06:38.119Z,11.23
2022-11-24T20:09:06.509Z,10.32
2022-11-24T20:11:32.893Z,10.45
2022-11-24T20:13:59.346Z,11.68
2022-11-24T20:16:30.262Z,10.50
2022-11-24T20:18:59.194Z,9.48
2022-11-24T20:21:28.769Z,9.90
2022-11-24T20:23:57.673Z,9.60
2022-11-24T20:26:25.512Z,9.73
2022-11-24T20:28:53.816Z,9.73
2022-11-24T20:31:23.040Z,10.23
2022-11-24T20:33:49.760Z,10.15
2022-11-24T20:36:18.731Z,10.68
2022-11-24T20:38:46.347Z,10.35
2022-11-24T20:41:18.761Z,9.90
2022-11-24T20:43:45.784Z,9.82
2022-11-24T20:46:15.175Z,10.70
2022-11-24T20:48:41.764Z,10.65
2022-11-24T20:51:13.932Z,12.30
2022-11-24T20:53:40.963Z,11.07
2022-11-24T20:56:19.726Z,14.25
2022-11-24T20:58:46.575Z,17.05
2022-11-24T21:01:16.207Z,13.25
2022-11-24T21:03:43.816Z,23.70
2022-11-24T21:06:11.896Z,18.48
2022-11-24T21:08:39.882Z,26.50
2022-11-24T21:11:08.155Z,23.77
2022-11-24T21:13:35.766Z,20.70
2022-11-24T21:16:11.577Z,21.67
2022-11-24T21:18:38.027Z,14.07
2022-11-24T21:21:04.413Z,13.38
2022-11-24T21:23:30.775Z,13.65
2022-11-24T21:26:05.146Z,29.48
2022-11-24T21:28:32.820Z,14.30
2022-11-24T21:31:07.122Z,20.83
2022-11-24T21:33:33.830Z,60.60
2022-11-24T21:36:06.568Z,45.13
2022-11-24T21:38:32.946Z,41.58
2022-11-24T21:41:01.214Z,36.67
2022-11-24T21:43:29.592Z,32.63
2022-11-24T21:46:03.913Z,25.35
2022-11-24T21:48:31.502Z,11.20
2022-11-24T21:50:59.479Z,12.80
2022-11-24T21:53:29.337Z,9.80
2022-11-24T21:55:57.227Z,10.98
2022-11-24T21:58:24.481Z,11.70
2022-11-24T22:00:51.428Z,12.57
2022-11-24T22:03:18.971Z,10.50
2022-11-24T22:05:55.806Z,11.00
2022-11-24T22:08:23.392Z,11.93
2022-11-24T22:10:50.266Z,12.25
2022-11-24T22:13:16.789Z,11.00
2022-11-24T22:15:43.338Z,12.55
2022-11-24T22:18:10.021Z,13.32
2022-11-24T22:20:36.590Z,15.15
2022-11-24T22:23:02.987Z,15.27
2022-11-24T22:25:29.345Z,16.65
2022-11-24T22:27:56.708Z,15.60
2022-11-24T22:30:23.068Z,17.10
2022-11-24T22:32:49.493Z,20.15
2022-11-24T22:35:16.004Z,17.85
2022-11-24T22:37:42.391Z,23.20
2022-11-24T22:40:09.074Z,16.33
2022-11-24T22:42:35.456Z,16.85
2022-11-24T22:45:01.813Z,16.73
2022-11-24T22:47:28.175Z,15.85
2022-11-24T22:49:54.584Z,22.02
2022-11-24T22:52:20.942Z,17.73
2022-11-24T22:54:47.314Z,16.27
2022-11-24T22:57:13.713Z,14.07
2022-11-24T22:59:40.072Z,17.27
2022-11-24T23:02:06.426Z,16.67
2022-11-24T23:04:32.884Z,18.45
2022-11-24T23:06:59.396Z,18.52
2022-11-24T23:09:25.744Z,28.67
2022-11-24T23:11:52.090Z,27.45
2022-11-24T23:14:18.610Z,21.52
2022-11-24T23:16:45.096Z,15.30
2022-11-24T23:19:11.535Z,17.85
2022-11-24T23:21:38.679Z,20.65
2022-11-24T23:24:05.963Z,21.17
2022-11-24T23:26:35.715Z,20.23
2022-11-24T23:29:02.621Z,26.58
2022-11-24T23:31:29.241Z,19.15
2022-11-24T23:34:01.930Z,18.75
2022-11-24T23:36:29.342Z,22.92
2022-11-24T23:38:56.269Z,19.27
2022-11-24T23:41:25.485Z,20.55
2022-11-24T23:43:52.570Z,44.90
2022-11-24T23:46:21.636Z,23.65
2022-11-24T23:48:49.335Z,20.30
2022-11-24T23:51:30.157Z,17.90
2022-11-24T23:53:57.263Z,24.70
2022-11-24T23:56:26.688Z,18.75
2022-11-24T23:58:53.104Z,19.45
